createdAt,value
2022-11-01T00:02:08.869Z,66.54
2022-11-01T00:04:36.773Z,67.02
2022-11-01T00:07:04.436Z,67.67
2022-11-01T00:09:32.105Z,67.61
2022-11-01T00:11:59.832Z,66.87
2022-11-01T00:14:27.351Z,66.01
2022-11-01T00:16:54.986Z,67.08
2022-11-01T00:19:22.743Z,65.77
2022-11-01T00:21:50.433Z,65.63
2022-11-01T00:24:17.882Z,65.83
2022-11-01T00:26:45.724Z,65.37
2022-11-01T00:29:13.514Z,65.23
2022-11-01T00:31:41.139Z,65.58
2022-11-01T00:34:09.219Z,65.11
2022-11-01T00:36:36.978Z,65.02
2022-11-01T00:39:05.294Z,65.95
2022-11-01T00:41:33.054Z,65.75
2022-11-01T00:44:00.564Z,68.49
2022-11-01T00:46:28.026Z,69.32
2022-11-01T00:48:55.717Z,68.59
2022-11-01T00:51:23.170Z,68.98
2022-11-01T00:53:50.804Z,69.48
2022-11-01T00:56:18.552Z,68.02
2022-11-01T00:58:46.006Z,67.72
2022-11-01T01:01:13.694Z,69.29
2022-11-01T01:03:41.452Z,69.26
2022-11-01T01:06:08.857Z,71.10
2022-11-01T01:08:36.328Z,71.29
2022-11-01T01:11:04.069Z,70.84
2022-11-01T01:13:31.494Z,70.90
2022-11-01T01:15:58.964Z,71.95
2022-11-01T01:18:27.344Z,71.55
2022-11-01T01:21:01.984Z,71.71
2022-11-01T01:23:29.732Z,71.78
2022-11-01T01:25:57.161Z,72.81
2022-11-01T01:28:24.612Z,72.19
2022-11-01T01:30:52.279Z,71.61
2022-11-01T01:33:19.761Z,71.89
2022-11-01T01:35:47.410Z,72.92
2022-11-01T01:38:15.115Z,72.61
2022-11-01T01:40:42.543Z,72.67
2022-11-01T01:43:12.171Z,72.98
2022-11-01T01:45:41.151Z,72.05
2022-11-01T01:48:13.269Z,71.81
2022-11-01T01:51:02.610Z,72.21
2022-11-01T01:53:36.312Z,71.04
2022-11-01T01:56:07.214Z,69.67
2022-11-01T01:58:38.222Z,69.43
2022-11-01T02:01:06.341Z,69.33
2022-11-01T02:03:35.171Z,69.37
2022-11-01T02:06:09.117Z,69.57
2022-11-01T02:08:39.240Z,69.24
2022-11-01T02:11:07.846Z,70.23
2022-11-01T02:13:35.399Z,70.76
2022-11-01T02:16:38.992Z,71.31
2022-11-01T02:19:31.959Z,69.87
2022-11-01T02:22:08.636Z,71.00
2022-11-01T02:25:01.956Z,69.56
2022-11-01T02:27:32.096Z,69.24
2022-11-01T02:30:18.674Z,70.21
2022-11-01T02:33:19.095Z,69.54
2022-11-01T02:35:59.059Z,69.41
2022-11-01T02:38:34.840Z,69.01
2022-11-01T02:41:10.065Z,68.77
2022-11-01T02:43:47.197Z,69.20
2022-11-01T02:46:35.222Z,68.87
2022-11-01T02:49:03.090Z,69.94
2022-11-01T02:51:32.204Z,68.78
2022-11-01T02:54:21.703Z,68.93
2022-11-01T02:56:50.838Z,68.61
2022-11-01T02:59:23.737Z,67.67
2022-11-01T03:02:01.870Z,68.29
2022-11-01T03:04:29.737Z,68.09
2022-11-01T03:06:59.695Z,68.12
2022-11-01T03:09:27.696Z,67.63
2022-11-01T03:12:00.800Z,67.84
2022-11-01T03:14:52.642Z,67.68
2022-11-01T03:17:32.631Z,67.62
2022-11-01T03:20:09.450Z,67.15
2022-11-01T03:22:44.163Z,68.09
2022-11-01T03:25:35.592Z,67.84
2022-11-01T03:28:09.479Z,69.73
2022-11-01T03:30:37.362Z,70.05
2022-11-01T03:33:05.132Z,69.01
2022-11-01T03:35:35.916Z,69.61
2022-11-01T03:38:12.847Z,69.81
2022-11-01T03:40:43.158Z,69.24
2022-11-01T03:43:12.429Z,69.80
2022-11-01T03:45:40.439Z,69.67
2022-11-01T03:48:08.063Z,70.69
2022-11-01T03:50:35.967Z,70.11
2022-11-01T03:53:03.459Z,69.31
2022-11-01T03:55:30.838Z,68.34
2022-11-01T03:58:00.144Z,68.41
2022-11-01T04:00:33.030Z,69.28
2022-11-01T04:03:01.433Z,68.21
2022-11-01T04:05:30.491Z,68.47
2022-11-01T04:07:57.987Z,68.39
2022-11-01T04:10:26.612Z,69.02
2022-11-01T04:12:54.034Z,69.97
2022-11-01T04:15:41.123Z,68.56
2022-11-01T04:18:42.917Z,70.92
2022-11-01T04:21:21.633Z,70.14
2022-11-01T04:23:49.633Z,69.79
2022-11-01T04:26:20.218Z,70.64
2022-11-01T04:28:59.849Z,69.50
2022-11-01T04:31:27.514Z,70.77
2022-11-01T04:33:55.974Z,69.64
2022-11-01T04:36:23.605Z,70.39
2022-11-01T04:38:52.847Z,70.05
2022-11-01T04:41:20.259Z,69.24
2022-11-01T04:43:47.701Z,71.39
2022-11-01T04:46:16.077Z,71.08
2022-11-01T04:48:43.463Z,69.89
2022-11-01T04:51:11.111Z,70.20
2022-11-01T04:53:39.012Z,69.72
2022-11-01T04:56:09.013Z,70.10
2022-11-01T04:58:41.432Z,69.04
2022-11-01T05:01:12.907Z,69.39
2022-11-01T05:03:40.603Z,68.44
2022-11-01T05:06:08.068Z,68.18
2022-11-01T05:08:35.787Z,67.59
2022-11-01T05:11:03.257Z,67.88
2022-11-01T05:13:30.832Z,70.19
2022-11-01T05:16:18.523Z,68.67
2022-11-01T05:18:46.053Z,69.54
2022-11-01T05:21:13.718Z,68.89
2022-11-01T05:23:41.166Z,70.01
2022-11-01T05:26:08.683Z,69.40
2022-11-01T05:28:36.393Z,70.78
2022-11-01T05:31:03.890Z,70.56
2022-11-01T05:33:31.340Z,70.02
2022-11-01T05:36:01.162Z,69.41
2022-11-01T05:38:28.593Z,70.25
2022-11-01T05:40:56.047Z,70.11
2022-11-01T05:43:23.785Z,69.65
2022-11-01T05:45:51.374Z,69.38
2022-11-01T05:48:18.827Z,69.62
2022-11-01T05:50:47.128Z,69.24
2022-11-01T05:53:14.748Z,68.67
2022-11-01T05:55:42.259Z,68.34
2022-11-01T05:58:09.983Z,68.63
2022-11-01T06:00:37.436Z,69.01
2022-11-01T06:03:06.236Z,68.21
2022-11-01T06:05:34.470Z,67.56
2022-11-01T06:08:02.281Z,68.13
2022-11-01T06:10:31.155Z,69.34
2022-11-01T06:12:59.104Z,68.74
2022-11-01T06:15:26.717Z,69.34
2022-11-01T06:18:01.431Z,68.79
2022-11-01T06:20:30.322Z,67.77
2022-11-01T06:22:59.000Z,67.57
2022-11-01T06:25:27.575Z,68.40
2022-11-01T06:27:55.084Z,67.93
2022-11-01T06:30:22.813Z,70.07
2022-11-01T06:32:50.247Z,68.84
2022-11-01T06:35:17.612Z,70.58
2022-11-01T06:37:45.388Z,69.13
2022-11-01T06:40:13.121Z,68.41
2022-11-01T06:42:45.514Z,68.50
2022-11-01T06:45:14.546Z,70.55
2022-11-01T06:47:46.440Z,69.91
2022-11-01T06:50:14.221Z,68.99
2022-11-01T06:52:41.612Z,68.46
2022-11-01T06:55:09.158Z,68.67
2022-11-01T06:57:36.899Z,67.56
2022-11-01T07:00:04.883Z,68.88
2022-11-01T07:02:32.499Z,68.59
2022-11-01T07:05:00.371Z,68.34
2022-11-01T07:07:28.013Z,69.23
2022-11-01T07:09:55.421Z,69.59
2022-11-01T07:12:23.073Z,67.65
2022-11-01T07:14:50.467Z,67.93
2022-11-01T07:17:17.882Z,67.04
2022-11-01T07:19:45.606Z,68.20
2022-11-01T07:22:14.297Z,69.05
2022-11-01T07:24:41.700Z,70.33
2022-11-01T07:27:09.428Z,69.82
2022-11-01T07:29:36.846Z,70.44
2022-11-01T07:32:04.570Z,68.34
2022-11-01T07:34:32.366Z,69.22
2022-11-01T07:36:59.780Z,68.44
2022-11-01T07:39:27.240Z,69.35
2022-11-01T07:41:54.949Z,68.24
2022-11-01T07:44:22.357Z,67.74
2022-11-01T07:46:49.763Z,67.27
2022-11-01T07:49:17.404Z,67.96
2022-11-01T07:51:44.813Z,68.60
2022-11-01T07:54:12.278Z,68.44
2022-11-01T07:56:39.976Z,67.54
2022-11-01T07:59:08.594Z,67.97
2022-11-01T08:01:36.247Z,67.20
2022-11-01T08:04:04.154Z,66.51
2022-11-01T08:06:31.573Z,66.43
2022-11-01T08:08:59.053Z,66.11
2022-11-01T08:11:28.197Z,67.29
2022-11-01T08:14:00.865Z,68.08
2022-11-01T08:16:32.143Z,67.19
2022-11-01T08:18:59.631Z,67.49
2022-11-01T08:21:27.328Z,66.21
2022-11-01T08:23:55.014Z,66.66
2022-11-01T08:26:22.452Z,66.89
2022-11-01T08:28:50.918Z,68.62
2022-11-01T08:31:18.623Z,70.55
2022-11-01T08:33:46.391Z,68.54
2022-11-01T08:36:14.739Z,67.46
2022-11-01T08:38:44.352Z,67.85
2022-11-01T08:41:11.786Z,67.81
2022-11-01T08:43:40.716Z,67.20
2022-11-01T08:46:10.697Z,67.62
2022-11-01T08:48:38.179Z,66.72
2022-11-01T08:51:05.824Z,67.37
2022-11-01T08:53:34.462Z,67.52
2022-11-01T08:56:02.287Z,67.39
2022-11-01T08:58:29.820Z,66.71
2022-11-01T09:00:57.698Z,66.31
2022-11-01T09:03:25.225Z,67.43
2022-11-01T09:05:52.705Z,67.89
2022-11-01T09:08:20.400Z,67.98
2022-11-01T09:10:47.862Z,67.08
2022-11-01T09:13:15.329Z,68.01
2022-11-01T09:15:43.029Z,66.66
2022-11-01T09:18:10.753Z,66.45
2022-11-01T09:20:38.250Z,66.23
2022-11-01T09:23:06.235Z,66.06
2022-11-01T09:25:33.913Z,65.85
2022-11-01T09:28:01.347Z,65.85
2022-11-01T09:30:30.267Z,65.54
2022-11-01T09:32:57.669Z,64.93
2022-11-01T09:35:25.168Z,65.11
2022-11-01T09:38:00.818Z,65.77
2022-11-01T09:40:29.049Z,65.79
2022-11-01T09:43:01.583Z,66.00
2022-11-01T09:45:31.910Z,66.09
2022-11-01T09:48:02.119Z,65.41
2022-11-01T09:50:37.781Z,65.71
2022-11-01T09:53:09.356Z,66.31
2022-11-01T09:56:10.144Z,65.56
2022-11-01T09:59:01.673Z,65.29
2022-11-01T10:02:05.819Z,65.93
2022-11-01T10:04:48.788Z,65.07
2022-11-01T10:07:41.190Z,64.98
2022-11-01T10:10:40.446Z,67.19
2022-11-01T10:13:26.689Z,66.42
2022-11-01T10:16:05.432Z,66.90
2022-11-01T10:18:41.079Z,66.92
2022-11-01T10:21:13.666Z,68.01
2022-11-01T10:23:50.711Z,67.67
2022-11-01T10:26:23.461Z,66.26
2022-11-01T10:28:50.775Z,67.05
2022-11-01T10:31:22.547Z,67.24
2022-11-01T10:34:05.300Z,67.35
2022-11-01T10:36:34.763Z,69.93
2022-11-01T10:42:09.794Z,68.20
2022-11-01T10:44:57.417Z,67.05
2022-11-01T10:47:25.681Z,67.29
2022-11-01T10:50:05.931Z,67.06
2022-11-01T10:52:55.917Z,66.94
2022-11-01T10:55:38.599Z,65.73
2022-11-01T10:58:13.594Z,65.82
2022-11-01T11:00:42.491Z,65.66
2022-11-01T11:03:25.154Z,65.10
2022-11-01T11:05:54.078Z,65.85
2022-11-01T11:08:23.418Z,65.05
2022-11-01T11:10:51.381Z,65.77
2022-11-01T11:13:23.876Z,66.55
2022-11-01T11:16:16.408Z,66.14
2022-11-01T11:19:01.261Z,66.59
2022-11-01T11:21:34.126Z,66.33
2022-11-01T11:24:02.846Z,66.37
2022-11-01T11:26:39.166Z,65.79
2022-11-01T11:29:06.914Z,64.52
2022-11-01T11:31:35.058Z,65.98
2022-11-01T11:34:20.675Z,66.18
2022-11-01T11:36:49.795Z,65.89
2022-11-01T11:39:37.111Z,65.67
2022-11-01T11:42:24.695Z,64.59
2022-11-01T11:44:57.062Z,64.90
2022-11-01T11:47:26.874Z,65.65
2022-11-01T11:49:56.649Z,66.01
2022-11-01T11:52:28.777Z,65.69
2022-11-01T11:54:56.886Z,65.25
2022-11-01T11:57:26.931Z,64.92
2022-11-01T11:59:57.174Z,63.97
2022-11-01T12:02:27.961Z,63.70
2022-11-01T12:04:58.771Z,63.30
2022-11-01T12:07:28.295Z,63.80
2022-11-01T12:09:58.010Z,64.13
2022-11-01T12:12:31.196Z,63.89
2022-11-01T12:15:00.254Z,63.46
2022-11-01T12:17:34.695Z,62.88
2022-11-01T12:20:16.935Z,64.15
2022-11-01T12:23:10.222Z,64.01
2022-11-01T12:25:40.157Z,63.49
2022-11-01T12:28:20.752Z,63.22
2022-11-01T12:30:49.722Z,62.92
2022-11-01T12:33:25.370Z,62.16
2022-11-01T12:35:56.939Z,61.54
2022-11-01T12:38:35.832Z,61.60
2022-11-01T12:41:29.843Z,61.13
2022-11-01T12:44:16.055Z,61.37
2022-11-01T12:46:51.757Z,61.79
2022-11-01T12:49:41.337Z,61.58
2022-11-01T12:52:31.345Z,61.29
2022-11-01T12:55:06.348Z,61.48
2022-11-01T12:57:34.908Z,61.40
2022-11-01T13:00:03.272Z,61.51
2022-11-01T13:02:43.436Z,60.95
2022-11-01T13:05:29.227Z,60.74
2022-11-01T13:08:09.715Z,59.62
2022-11-01T13:13:23.895Z,59.15
2022-11-01T13:16:14.386Z,59.13
2022-11-01T13:18:55.651Z,59.66
2022-11-01T13:22:01.521Z,59.84
2022-11-01T13:24:34.491Z,60.55
2022-11-01T13:27:25.480Z,60.58
2022-11-01T13:30:05.893Z,60.74
2022-11-01T13:32:37.791Z,60.50
2022-11-01T13:35:24.033Z,59.50
2022-11-01T13:38:27.590Z,59.76
2022-11-01T13:41:01.115Z,59.01
2022-11-01T13:43:36.927Z,58.65
2022-11-01T13:46:13.536Z,58.86
2022-11-01T13:48:59.870Z,58.92
2022-11-01T13:52:01.559Z,58.22
2022-11-01T13:54:51.236Z,59.35
2022-11-01T13:57:21.106Z,58.17
2022-11-01T13:59:57.391Z,57.86
2022-11-01T14:02:28.059Z,58.50
2022-11-01T14:04:59.027Z,58.03
2022-11-01T14:07:32.373Z,57.40
2022-11-01T14:10:00.111Z,57.06
2022-11-01T14:12:30.727Z,57.10
2022-11-01T14:15:32.807Z,57.13
2022-11-01T14:18:05.165Z,57.43
2022-11-01T14:20:40.522Z,57.11
2022-11-01T14:23:29.906Z,56.61
2022-11-01T14:26:22.898Z,56.66
2022-11-01T14:28:56.900Z,56.31
2022-11-01T14:31:26.835Z,56.50
2022-11-01T14:33:59.866Z,56.13
2022-11-01T14:36:29.667Z,56.17
2022-11-01T14:39:07.032Z,57.61
2022-11-01T14:41:36.584Z,56.40
2022-11-01T14:44:11.790Z,56.00
2022-11-01T14:46:46.224Z,56.06
2022-11-01T14:49:42.775Z,55.91
2022-11-01T14:52:24.659Z,56.33
2022-11-01T14:54:56.526Z,55.76
2022-11-01T14:57:30.558Z,56.16
2022-11-01T14:59:58.872Z,55.69
2022-11-01T15:02:27.957Z,56.21
2022-11-01T15:05:00.023Z,55.85
2022-11-01T15:07:31.246Z,57.02
2022-11-01T15:10:06.737Z,56.67
2022-11-01T15:12:38.171Z,56.06
2022-11-01T15:15:06.454Z,56.30
2022-11-01T15:17:34.642Z,56.58
2022-11-01T15:20:13.321Z,56.29
2022-11-01T15:22:42.795Z,56.24
2022-11-01T15:25:20.675Z,58.01
2022-11-01T15:27:48.600Z,56.74
2022-11-01T15:30:23.732Z,56.34
2022-11-01T15:32:53.887Z,56.21
2022-11-01T15:35:25.727Z,56.27
2022-11-01T15:37:54.595Z,56.33
2022-11-01T15:40:29.585Z,56.29
2022-11-01T15:43:02.119Z,56.48
2022-11-01T15:45:31.116Z,56.48
2022-11-01T15:48:07.353Z,56.68
2022-11-01T15:50:37.651Z,56.58
2022-11-01T15:53:10.054Z,56.83
2022-11-01T15:55:41.886Z,57.06
2022-11-01T15:58:17.569Z,56.97
2022-11-01T16:00:51.736Z,56.96
2022-11-01T16:03:35.932Z,57.00
2022-11-01T16:06:13.992Z,56.96
2022-11-01T16:08:50.348Z,57.58
2022-11-01T16:11:22.718Z,57.20
2022-11-01T16:14:00.497Z,57.46
2022-11-01T16:16:29.143Z,58.98
2022-11-01T16:18:57.047Z,58.30
2022-11-01T16:21:30.701Z,57.88
2022-11-01T16:24:15.656Z,57.83
2022-11-01T16:26:56.269Z,57.84
2022-11-01T16:29:40.599Z,57.87
2022-11-01T16:32:29.998Z,57.86
2022-11-01T16:35:00.242Z,57.71
2022-11-01T16:37:32.793Z,57.95
2022-11-01T16:40:24.517Z,58.06
2022-11-01T16:42:52.229Z,58.49
2022-11-01T16:45:20.119Z,58.17
2022-11-01T16:47:47.592Z,58.28
2022-11-01T16:50:21.296Z,58.26
2022-11-01T16:52:49.109Z,58.56
2022-11-01T16:55:16.672Z,58.77
2022-11-01T16:57:47.232Z,58.58
2022-11-01T17:00:15.343Z,58.53
2022-11-01T17:02:44.110Z,58.89
2022-11-01T17:05:15.570Z,58.66
2022-11-01T17:07:43.549Z,58.81
2022-11-01T17:10:20.976Z,58.63
2022-11-01T17:12:49.057Z,58.87
2022-11-01T17:15:17.368Z,58.62
2022-11-01T17:17:46.961Z,58.84
2022-11-01T17:20:20.105Z,58.91
2022-11-01T17:22:50.921Z,58.85
2022-11-01T17:25:20.320Z,58.88
2022-11-01T17:27:51.132Z,59.13
2022-11-01T17:30:19.888Z,59.31
2022-11-01T17:32:47.506Z,59.28
2022-11-01T17:35:15.794Z,59.31
2022-11-01T17:37:43.810Z,59.59
2022-11-01T17:40:22.783Z,59.43
2022-11-01T17:42:50.976Z,59.35
2022-11-01T17:45:18.495Z,59.34
2022-11-01T17:47:47.164Z,59.47
2022-11-01T17:50:16.313Z,59.40
2022-11-01T17:52:44.181Z,59.39
2022-11-01T17:55:12.136Z,59.33
2022-11-01T17:57:41.062Z,59.38
2022-11-01T18:00:09.905Z,59.44
2022-11-01T18:02:40.139Z,59.62
2022-11-01T18:05:09.447Z,59.64
2022-11-01T18:07:41.988Z,59.61
2022-11-01T18:10:27.544Z,59.46
2022-11-01T18:13:30.137Z,59.55
2022-11-01T18:16:04.735Z,59.60
2022-11-01T18:18:44.708Z,59.50
2022-11-01T18:21:48.924Z,59.79
2022-11-01T18:24:22.618Z,59.57
2022-11-01T18:26:51.454Z,59.89
2022-11-01T18:29:24.014Z,60.30
2022-11-01T18:32:02.439Z,59.82
2022-11-01T18:34:37.326Z,59.54
2022-11-01T18:37:45.022Z,59.69
2022-11-01T18:40:27.449Z,59.54
2022-11-01T18:42:55.291Z,59.95
2022-11-01T18:45:30.994Z,59.84
2022-11-01T18:48:13.343Z,59.98
2022-11-01T18:50:41.085Z,59.95
2022-11-01T18:53:08.973Z,60.30
2022-11-01T18:55:37.267Z,59.91
2022-11-01T18:58:22.352Z,60.18
2022-11-01T19:01:12.098Z,60.14
2022-11-01T19:03:40.366Z,60.05
2022-11-01T19:06:20.053Z,60.77
2022-11-01T19:08:58.911Z,60.60
2022-11-01T19:11:28.368Z,60.92
2022-11-01T19:14:02.280Z,61.70
2022-11-01T19:16:30.315Z,61.36
2022-11-01T19:18:57.951Z,60.76
2022-11-01T19:21:25.933Z,60.96
2022-11-01T19:23:54.339Z,62.85
2022-11-01T19:26:27.874Z,61.66
2022-11-01T19:28:55.707Z,62.26
2022-11-01T19:31:32.186Z,61.89
2022-11-01T19:34:03.599Z,60.94
2022-11-01T19:36:40.625Z,61.62
2022-11-01T19:39:19.278Z,60.56
2022-11-01T19:41:46.908Z,60.97
2022-11-01T19:44:19.287Z,64.10
2022-11-01T19:46:46.979Z,62.58
2022-11-01T19:49:23.729Z,63.54
2022-11-01T19:52:23.117Z,62.65
2022-11-01T19:54:52.193Z,64.25
2022-11-01T19:57:37.462Z,65.09
2022-11-01T20:00:21.755Z,64.28
2022-11-01T20:02:52.530Z,64.75
2022-11-01T20:05:23.719Z,64.83
2022-11-01T20:07:51.804Z,66.31
2022-11-01T20:10:19.645Z,68.44
2022-11-01T20:12:47.627Z,67.84
2022-11-01T20:15:15.693Z,66.89
2022-11-01T20:20:16.455Z,67.59
2022-11-01T20:22:54.559Z,65.65
2022-11-01T20:25:30.876Z,65.87
2022-11-01T20:27:58.556Z,65.15
2022-11-01T20:30:26.210Z,64.75
2022-11-01T20:32:54.162Z,66.10
2022-11-01T20:35:21.798Z,66.49
2022-11-01T20:37:49.406Z,64.38
2022-11-01T20:40:17.326Z,63.43
2022-11-01T20:42:45.987Z,63.63
2022-11-01T20:45:14.696Z,65.67
2022-11-01T20:47:46.360Z,65.80
2022-11-01T20:50:15.556Z,64.18
2022-11-01T20:52:43.616Z,64.45
2022-11-01T20:55:12.644Z,64.99
2022-11-01T20:57:40.287Z,63.14
2022-11-01T21:00:18.918Z,64.93
2022-11-01T21:02:47.259Z,64.75
2022-11-01T21:05:22.429Z,64.94
2022-11-01T21:07:53.961Z,63.25
2022-11-01T21:10:43.902Z,63.77
2022-11-01T21:13:35.758Z,64.19
2022-11-01T21:16:08.445Z,65.15
2022-11-01T21:18:42.171Z,64.35
2022-11-01T21:21:15.870Z,64.33
2022-11-01T21:23:44.541Z,66.24
2022-11-01T21:26:18.484Z,64.76
2022-11-01T21:29:14.574Z,64.42
2022-11-01T21:31:42.632Z,66.30
2022-11-01T21:34:10.181Z,65.67
2022-11-01T21:36:41.881Z,66.74
2022-11-01T21:39:19.870Z,66.83
2022-11-01T21:41:51.778Z,66.86
2022-11-01T21:44:45.505Z,68.21
2022-11-01T21:47:23.558Z,65.05
2022-11-01T21:49:51.631Z,66.87
2022-11-01T21:52:19.635Z,66.87
2022-11-01T21:54:48.467Z,64.75
2022-11-01T21:57:16.753Z,65.89
2022-11-01T21:59:44.432Z,67.18
2022-11-01T22:02:13.843Z,65.34
2022-11-01T22:04:42.192Z,67.40
2022-11-01T22:07:10.819Z,68.61
2022-11-01T22:09:38.613Z,68.17
2022-11-01T22:12:06.970Z,67.80
2022-11-01T22:14:34.924Z,65.99
2022-11-01T22:17:02.405Z,67.65
2022-11-01T22:19:30.083Z,67.31
2022-11-01T22:21:57.653Z,66.71
2022-11-01T22:24:25.771Z,65.50
2022-11-01T22:26:53.468Z,66.37
2022-11-01T22:29:20.920Z,64.18
2022-11-01T22:31:48.344Z,64.92
2022-11-01T22:34:17.437Z,65.12
2022-11-01T22:36:44.880Z,66.25
2022-11-01T22:39:18.717Z,65.05
2022-11-01T22:41:47.203Z,65.97
2022-11-01T22:44:17.163Z,66.39
2022-11-01T22:46:47.795Z,64.01
2022-11-01T22:49:36.232Z,66.89
2022-11-01T22:52:06.557Z,64.28
2022-11-01T22:54:47.614Z,63.22
2022-11-01T22:57:18.187Z,63.71
2022-11-01T22:59:56.589Z,62.82
2022-11-01T23:02:26.970Z,63.20
2022-11-01T23:05:06.112Z,62.28
2022-11-01T23:07:37.315Z,62.31
2022-11-01T23:10:28.363Z,63.00
2022-11-01T23:13:20.937Z,61.89
2022-11-01T23:15:48.656Z,61.80
2022-11-01T23:18:21.140Z,61.46
2022-11-01T23:20:57.494Z,60.49
2022-11-01T23:23:26.492Z,60.06
2022-11-01T23:25:55.962Z,62.52
2022-11-01T23:28:24.513Z,61.95
2022-11-01T23:30:52.062Z,61.21
2022-11-01T23:33:21.201Z,60.30
2022-11-01T23:35:57.104Z,62.62
2022-11-01T23:38:37.480Z,62.71
2022-11-01T23:41:05.216Z,60.82
2022-11-01T23:43:37.983Z,61.20
2022-11-01T23:46:11.473Z,59.88
2022-11-01T23:48:43.325Z,61.11
2022-11-01T23:51:20.315Z,61.54
2022-11-01T23:53:51.370Z,59.92
2022-11-01T23:56:20.118Z,59.86
2022-11-01T23:58:53.803Z,59.83
